| time (UTC) | temp C | wind direction | speed KPH | gust KPH | rain 1hr cm | rain 24hr cm | rain mn cm | humidity % | barometer mb |
| 20260906072816 | 27 | 68 | 8.0 | 12.9 | 0.00 | 0.00 | 0.00 | 48 | 1022.0 |
| 20260906071855 | 27 | 45 | 3.2 | 11.3 | 0.00 | 0.00 | 0.00 | 52 | 1022.0 |
| 20260906070818 | 26 | 68 | 6.4 | 11.3 | 0.00 | 0.00 | 0.00 | 53 | 1021.8 |
| 20260906065818 | 25 | 45 | 6.4 | 12.9 | 0.00 | 0.00 | 0.00 | 56 | 1021.8 |
| 20260906064855 | 25 | 45 | 3.2 | 6.4 | 0.00 | 0.00 | 0.00 | 58 | 1021.8 |
| 20260906063816 | 24 | 68 | 4.8 | 8.0 | 0.00 | 0.00 | 0.00 | 61 | 1021.7 |
| 20260906062854 | 23 | 68 | 1.6 | 4.8 | 0.00 | 0.00 | 0.00 | 62 | 1021.7 |
| 20260906061816 | 23 | 68 | 1.6 | 4.8 | 0.00 | 0.00 | 0.00 | 64 | 1021.7 |
| 20260906060843 | 22 | 0.0 | 1.6 | 0.00 | 0.00 | 0.00 | 66 | 1021.6 | |
| 20260906055816 | 22 | 0.0 | 0.0 | 0.00 | 0.00 | 0.00 | 70 | 1021.6 | |
| 20260906054818 | 22 | 0.0 | 0.0 | 0.00 | 0.00 | 0.00 | 72 | 1021.4 | |
| 20260906053855 | 21 | 0.0 | 0.0 | 0.00 | 0.00 | 0.00 | 71 | 1021.4 | |
| 20260906052817 | 21 | 0.0 | 0.0 | 0.00 | 0.00 | 0.00 | 70 | 1021.2 | |
| 20260906051854 | 21 | 0.0 | 0.0 | 0.00 | 0.00 | 0.00 | 72 | 1021.2 | |
| 20260906050849 | 21 | 68 | 3.2 | 12.9 | 0.00 | 0.00 | 0.00 | 71 | 1021.1 |
| 20260906045818 | 21 | 0.0 | 0.0 | 0.00 | 0.00 | 0.00 | 71 | 1020.9 | |
| 20260906044837 | 21 | 68 | 3.2 | 11.3 | 0.00 | 0.00 | 0.00 | 70 | 1020.8 |
| 20260906043854 | 21 | 0.0 | 0.0 | 0.00 | 0.00 | 0.00 | 69 | 1020.8 | |
| 20260906042854 | 21 | 0.0 | 0.0 | 0.00 | 0.00 | 0.00 | 68 | 1020.7 | |
| 20260906041816 | 22 | 0.0 | 0.0 | 0.00 | 0.00 | 0.00 | 66 | 1020.7 | |
| 20260906040818 | 22 | 0.0 | 0.0 | 0.00 | 0.00 | 0.00 | 65 | 1020.6 | |
| 20260906035818 | 22 | 0.0 | 0.0 | 0.00 | 0.00 | 0.00 | 63 | 1020.6 | |
| 20260906034818 | 23 | 68 | 1.6 | 4.8 | 0.00 | 0.00 | 0.00 | 62 | 1020.5 |
| 20260906033816 | 23 | 68 | 6.4 | 8.0 | 0.00 | 0.00 | 0.00 | 61 | 1020.3 |
| 20260906032819 | 24 | 68 | 4.8 | 8.0 | 0.00 | 0.00 | 0.00 | 59 | 1020.3 |
| 20260906031816 | 24 | 68 | 9.7 | 12.9 | 0.00 | 0.00 | 0.00 | 58 | 1020.2 |
| 20260906030816 | 23 | 68 | 8.0 | 12.9 | 0.00 | 0.00 | 0.00 | 60 | 1020.2 |
| 20260906025818 | 23 | 68 | 6.4 | 11.3 | 0.00 | 0.00 | 0.00 | 62 | 1020.1 |
| 20260906024818 | 22 | 68 | 8.0 | 11.3 | 0.00 | 0.00 | 0.00 | 64 | 1020.1 |
| 20260906023818 | 22 | 68 | 6.4 | 8.0 | 0.00 | 0.00 | 0.00 | 65 | 1020.0 |
| 20260906022915 | 22 | 68 | 3.2 | 8.0 | 0.00 | 0.00 | 0.00 | 65 | 1019.9 |
| 20260906021824 | 22 | 68 | 1.6 | 6.4 | 0.00 | 0.00 | 0.00 | 65 | 1020.0 |
| 20260906020816 | 23 | 68 | 3.2 | 6.4 | 0.00 | 0.00 | 0.00 | 64 | 1020.0 |
| 20260906015817 | 23 | 68 | 9.7 | 12.9 | 0.00 | 0.00 | 0.00 | 64 | 1019.9 |
| 20260906014855 | 22 | 0.0 | 0.0 | 0.00 | 0.00 | 0.00 | 65 | 1019.9 | |
| 20260906013818 | 22 | 0.0 | 0.0 | 0.00 | 0.00 | 0.00 | 69 | 1019.9 | |
| 20260906012855 | 22 | 68 | 3.2 | 6.4 | 0.00 | 0.00 | 0.00 | 68 | 1019.9 |
| 20260906011855 | 22 | 68 | 3.2 | 6.4 | 0.00 | 0.00 | 0.00 | 67 | 1020.0 |
| 20260906010818 | 22 | 68 | 3.2 | 4.8 | 0.00 | 0.00 | 0.00 | 67 | 1019.9 |
| 20260906005817 | 22 | 68 | 3.2 | 6.4 | 0.00 | 0.00 | 0.00 | 67 | 1019.9 |
| 20260906004816 | 23 | 68 | 3.2 | 8.0 | 0.00 | 0.00 | 0.00 | 66 | 1019.9 |
| 20260906003857 | 23 | 68 | 6.4 | 11.3 | 0.00 | 0.00 | 0.00 | 66 | 1019.8 |
| 20260906002819 | 23 | 68 | 1.6 | 4.8 | 0.00 | 0.00 | 0.00 | 65 | 1019.8 |
| 20260906001855 | 23 | 68 | 1.6 | 4.8 | 0.00 | 0.00 | 0.00 | 63 | 1019.8 |
| 20260906000818 | 23 | 68 | 4.8 | 8.0 | 0.00 | 0.00 | 0.00 | 63 | 1019.8 |
| 20260905235824 | 23 | 68 | 3.2 | 8.0 | 0.00 | 0.00 | 0.00 | 63 | 1019.8 |
| 20260905234817 | 23 | 68 | 1.6 | 3.2 | 0.00 | 0.00 | 0.00 | 63 | 1019.7 |
| 20260905233817 | 24 | 68 | 3.2 | 6.4 | 0.00 | 0.00 | 0.00 | 62 | 1019.5 |
| 20260905232816 | 24 | 68 | 8.0 | 11.3 | 0.00 | 0.00 | 0.00 | 61 | 1019.5 |
| 20260905231818 | 24 | 68 | 8.0 | 11.3 | 0.00 | 0.00 | 0.00 | 61 | 1019.4 |
| 20260905230839 | 24 | 68 | 3.2 | 6.4 | 0.00 | 0.00 | 0.00 | 62 | 1019.4 |
| 20260905225855 | 24 | 68 | 4.8 | 8.0 | 0.00 | 0.00 | 0.00 | 62 | 1019.4 |
| 20260905224819 | 25 | 68 | 8.0 | 11.3 | 0.00 | 0.00 | 0.00 | 61 | 1019.2 |
| 20260905223817 | 25 | 0.0 | 0.0 | 0.00 | 0.00 | 0.00 | 60 | 1019.3 | |
| 20260905222817 | 25 | 68 | 1.6 | 4.8 | 0.00 | 0.00 | 0.00 | 61 | 1019.1 |
| 20260905221816 | 24 | 68 | 1.6 | 6.4 | 0.00 | 0.00 | 0.00 | 62 | 1019.0 |
| 20260905220855 | 23 | 68 | 6.4 | 11.3 | 0.00 | 0.00 | 0.00 | 66 | 1019.1 |
| 20260905215818 | 23 | 0.0 | 0.0 | 0.00 | 0.00 | 0.00 | 68 | 1019.0 | |
| 20260905214836 | 23 | 68 | 1.6 | 4.8 | 0.00 | 0.00 | 0.00 | 68 | 1019.0 |
| 20260905213818 | 23 | 0.0 | 0.0 | 0.00 | 0.00 | 0.00 | 68 | 1019.0 | |
| 20260905212854 | 23 | 0.0 | 1.6 | 0.00 | 0.00 | 0.00 | 67 | 1019.0 | |
| 20260905211854 | 24 | 0.0 | 3.2 | 0.00 | 0.00 | 0.00 | 68 | 1019.1 | |
| 20260905210818 | 24 | 0.0 | 0.0 | 0.00 | 0.00 | 0.00 | 68 | 1018.9 | |
| 20260905205854 | 25 | 0.0 | 0.0 | 0.00 | 0.00 | 0.00 | 66 | 1018.9 | |
| 20260905204817 | 25 | 0.0 | 0.0 | 0.00 | 0.00 | 0.00 | 65 | 1018.9 | |
| 20260905203816 | 25 | 0.0 | 0.0 | 0.00 | 0.00 | 0.00 | 63 | 1018.9 | |
| 20260905202854 | 25 | 0.0 | 0.0 | 0.00 | 0.00 | 0.00 | 62 | 1018.7 | |
| 20260905201823 | 25 | 0.0 | 0.0 | 0.00 | 0.00 | 0.00 | 63 | 1018.7 | |
| 20260905200838 | 25 | 68 | 3.2 | 4.8 | 0.00 | 0.00 | 0.00 | 65 | 1018.5 |
| 20260905195818 | 26 | 68 | 3.2 | 6.4 | 0.00 | 0.00 | 0.00 | 63 | 1018.4 |
| 20260905194838 | 26 | 0.0 | 1.6 | 0.00 | 0.00 | 0.00 | 60 | 1018.2 | |
| 20260905193816 | 26 | 0.0 | 0.0 | 0.00 | 0.00 | 0.00 | 59 | 1018.3 | |
| 20260905192816 | 27 | 0.0 | 0.0 | 0.00 | 0.00 | 0.00 | 59 | 1018.2 | |
| 20260905191818 | 27 | 0.0 | 1.6 | 0.00 | 0.00 | 0.00 | 55 | 1018.0 | |
| 20260905190815 | 27 | 68 | 1.6 | 3.2 | 0.00 | 0.00 | 0.00 | 53 | 1017.9 |
| 20260905185818 | 27 | 90 | 9.7 | 12.9 | 0.00 | 0.00 | 0.00 | 52 | 1017.9 |
| 20260905184818 | 27 | 90 | 1.6 | 8.0 | 0.00 | 0.00 | 0.00 | 53 | 1017.8 |
| 20260905183818 | 27 | 0.0 | 0.0 | 0.00 | 0.00 | 0.00 | 53 | 1017.6 | |
| 20260905182816 | 27 | 0.0 | 0.0 | 0.00 | 0.00 | 0.00 | 53 | 1017.4 | |
| 20260905181816 | 28 | 68 | 4.8 | 8.0 | 0.00 | 0.00 | 0.00 | 53 | 1017.3 |
| 20260905180818 | 28 | 68 | 4.8 | 11.3 | 0.00 | 0.00 | 0.00 | 52 | 1017.2 |
| 20260905175817 | 28 | 158 | 4.8 | 9.7 | 0.00 | 0.00 | 0.00 | 53 | 1017.0 |
| 20260905174818 | 28 | 158 | 3.2 | 6.4 | 0.00 | 0.00 | 0.00 | 53 | 1016.8 |
| 20260905173823 | 28 | 0.0 | 0.0 | 0.00 | 0.00 | 0.00 | 54 | 1016.8 | |
| 20260905172818 | 28 | 158 | 1.6 | 6.4 | 0.00 | 0.00 | 0.00 | 55 | 1016.6 |
| 20260905171816 | 29 | 0.0 | 0.0 | 0.00 | 0.00 | 0.00 | 65 | 1016.4 | |
| 20260905170836 | 30 | 0.0 | 0.0 | 0.00 | 0.00 | 0.00 | 62 | 1016.3 | |
| 20260905165818 | 30 | 0.0 | 0.0 | 0.00 | 0.00 | 0.00 | 60 | 1016.3 | |
| 20260905164837 | 30 | 0.0 | 0.0 | 0.00 | 0.00 | 0.00 | 60 | 1016.1 | |
| 20260905163818 | 30 | 0.0 | 0.0 | 0.00 | 0.00 | 0.00 | 60 | 1015.9 | |
| 20260905162816 | 31 | 0.0 | 0.0 | 0.00 | 0.00 | 0.00 | 59 | 1015.6 | |
| 20260905161818 | 31 | 0.0 | 0.0 | 0.00 | 0.00 | 0.00 | 57 | 1015.7 | |
| 20260905160816 | 31 | 0.0 | 3.2 | 0.00 | 0.00 | 0.00 | 56 | 1015.6 | |
| 20260905155816 | 32 | 0.0 | 0.0 | 0.00 | 0.00 | 0.00 | 56 | 1015.5 | |
| 20260905154854 | 32 | 0.0 | 0.0 | 0.00 | 0.00 | 0.00 | 55 | 1015.5 | |
| 20260905153818 | 32 | 0.0 | 0.0 | 0.00 | 0.00 | 0.00 | 52 | 1015.5 | |
| 20260905152818 | 32 | 0.0 | 0.0 | 0.00 | 0.00 | 0.00 | 52 | 1015.5 | |
| 20260905151816 | 32 | 0.0 | 0.0 | 0.00 | 0.00 | 0.00 | 52 | 1015.6 | |
| 20260905150844 | 32 | 0.0 | 0.0 | 0.00 | 0.00 | 0.00 | 53 | 1015.5 | |
| 20260905145836 | 32 | 248 | 3.2 | 9.7 | 0.00 | 0.00 | 0.00 | 51 | 1015.4 |
| 20260905144836 | 33 | 0.0 | 12.9 | 0.00 | 0.00 | 0.00 | 50 | 1015.4 | |
| 20260905143854 | 34 | 0.0 | 0.0 | 0.00 | 0.00 | 0.00 | 51 | 1015.4 | |
| 20260905142818 | 34 | 0.0 | 0.0 | 0.00 | 0.00 | 0.00 | 48 | 1015.4 | |
| 20260905141855 | 34 | 0.0 | 0.0 | 0.00 | 0.00 | 0.00 | 51 | 1015.4 | |
| 20260905140816 | 34 | 0.0 | 0.0 | 0.00 | 0.00 | 0.00 | 50 | 1015.6 | |
| 20260905135818 | 34 | 0.0 | 0.0 | 0.00 | 0.00 | 0.00 | 48 | 1015.6 | |
| 20260905134816 | 33 | 0.0 | 0.0 | 0.00 | 0.00 | 0.00 | 51 | 1015.6 | |
| 20260905133816 | 33 | 0.0 | 0.0 | 0.00 | 0.00 | 0.00 | 50 | 1015.7 | |
| 20260905132849 | 33 | 0.0 | 0.0 | 0.00 | 0.00 | 0.00 | 49 | 1015.7 | |
| 20260905131818 | 33 | 0.0 | 0.0 | 0.00 | 0.00 | 0.00 | 47 | 1015.6 | |
| 20260905130838 | 33 | 0.0 | 0.0 | 0.00 | 0.00 | 0.00 | 45 | 1015.7 | |
| 20260905125818 | 33 | 0.0 | 1.6 | 0.00 | 0.00 | 0.00 | 49 | 1015.8 | |
| 20260905124818 | 32 | 0.0 | 0.0 | 0.00 | 0.00 | 0.00 | 47 | 1015.9 | |
| 20260905123817 | 32 | 0.0 | 0.0 | 0.00 | 0.00 | 0.00 | 50 | 1016.1 | |
| 20260905122836 | 32 | 0.0 | 0.0 | 0.00 | 0.00 | 0.00 | 45 | 1016.1 | |
| 20260905121838 | 33 | 0.0 | 0.0 | 0.00 | 0.00 | 0.00 | 50 | 1016.3 | |
| 20260905120818 | 32 | 0.0 | 0.0 | 0.00 | 0.00 | 0.00 | 49 | 1016.2 | |
| 20260905115838 | 32 | 0.0 | 0.0 | 0.00 | 0.00 | 0.00 | 45 | 1016.3 | |
| 20260905114838 | 32 | 0.0 | 0.0 | 0.00 | 0.00 | 0.00 | 44 | 1016.3 | |
| 20260905113855 | 31 | 0.0 | 0.0 | 0.00 | 0.00 | 0.00 | 44 | 1016.4 | |
| 20260905112816 | 31 | 0.0 | 0.0 | 0.00 | 0.00 | 0.00 | 44 | 1016.3 | |
| 20260905111816 | 32 | 0.0 | 0.0 | 0.00 | 0.00 | 0.00 | 44 | 1016.4 | |
| 20260905110816 | 32 | 0.0 | 0.0 | 0.00 | 0.00 | 0.00 | 50 | 1016.4 | |
| 20260905105844 | 31 | 0.0 | 0.0 | 0.00 | 0.00 | 0.00 | 49 | 1016.4 | |
| 20260905104854 | 31 | 0.0 | 0.0 | 0.00 | 0.00 | 0.00 | 45 | 1016.5 | |
| 20260905103859 | 30 | 0.0 | 0.0 | 0.00 | 0.00 | 0.00 | 51 | 1016.5 | |
| 20260905102850 | 29 | 0.0 | 0.0 | 0.00 | 0.00 | 0.00 | 53 | 1016.5 | |
| 20260905101816 | 29 | 0.0 | 0.0 | 0.00 | 0.00 | 0.00 | 49 | 1016.5 | |
| 20260905100817 | 29 | 0.0 | 0.0 | 0.00 | 0.00 | 0.00 | 46 | 1016.7 | |
| 20260905095816 | 29 | 0.0 | 0.0 | 0.00 | 0.00 | 0.00 | 48 | 1016.8 | |
| 20260905094819 | 29 | 0.0 | 0.0 | 0.00 | 0.00 | 0.00 | 46 | 1016.7 | |
| 20260905093818 | 30 | 0.0 | 0.0 | 0.00 | 0.00 | 0.00 | 45 | 1016.5 | |
| 20260905092824 | 30 | 0.0 | 0.0 | 0.00 | 0.00 | 0.00 | 47 | 1016.5 | |
| 20260905091849 | 30 | 0.0 | 0.0 | 0.00 | 0.00 | 0.00 | 47 | 1016.6 | |
| 20260905090837 | 30 | 0.0 | 0.0 | 0.00 | 0.00 | 0.00 | 52 | 1016.5 | |
| 20260905085816 | 29 | 0.0 | 0.0 | 0.00 | 0.00 | 0.00 | 49 | 1016.4 | |
| 20260905084857 | 29 | 0.0 | 0.0 | 0.00 | 0.00 | 0.00 | 48 | 1016.4 | |
| 20260905083844 | 29 | 0.0 | 0.0 | 0.00 | 0.00 | 0.00 | 53 | 1016.4 | |
| 20260905082816 | 29 | 0.0 | 0.0 | 0.00 | 0.00 | 0.00 | 51 | 1016.3 | |
| 20260905081818 | 29 | 0.0 | 0.0 | 0.00 | 0.00 | 0.00 | 50 | 1016.2 | |
| 20260905080818 | 28 | 0.0 | 0.0 | 0.00 | 0.00 | 0.00 | 51 | 1016.1 | |
| 20260905075816 | 28 | 0.0 | 0.0 | 0.00 | 0.00 | 0.00 | 55 | 1016.2 | |
| 20260905074816 | 27 | 0.0 | 0.0 | 0.00 | 0.00 | 0.00 | 56 | 1016.2 | |
| 20260905073817 | 26 | 0.0 | 0.0 | 0.00 | 0.00 | 0.00 | 65 | 1016.1 |